Time,TemperatureF,DewpointF,PressureIn,WindDirection,WindDirectionDegrees,WindSpeedMPH,WindSpeedGustMPH,Humidity,HourlyPrecipIn,Conditions,Clouds,dailyrainin,SolarRadiationWatts/m^2,SoftwareType,DateUTC
2013-03-20 00:03:00,66.0,62.0,-100.00,West,263,4.0,-999.0,86,0.00,,,-99.99,0.000000,,2013-03-20 04:03:00,
2013-03-20 00:12:00,65.0,62.0,-100.00,West,277,5.0,-999.0,87,0.00,,,-99.99,0.000000,,2013-03-20 04:12:00,
2013-03-20 00:23:00,65.0,62.0,-100.00,West,277,5.0,-999.0,87,0.00,,,-99.99,0.000000,,2013-03-20 04:23:00,
2013-03-20 00:32:00,65.0,62.0,-100.00,West,275,6.0,-999.0,88,0.00,,,-99.99,0.000000,,2013-03-20 04:32:00,
2013-03-20 00:43:00,65.0,61.0,-100.00,West,280,5.0,-999.0,89,0.00,,,-99.99,0.000000,,2013-03-20 04:43:00,
2013-03-20 00:53:00,65.0,61.0,-100.00,West,280,5.0,-999.0,89,0.00,,,-99.99,0.000000,,2013-03-20 04:53:00,
2013-03-20 01:02:00,64.0,61.0,-100.00,WNW,291,6.0,-999.0,90,0.00,,,-99.99,0.000000,,2013-03-20 05:02:00,
2013-03-20 01:13:00,64.0,62.0,-100.00,WNW,291,6.0,-999.0,90,0.00,,,-99.99,0.000000,,2013-03-20 05:13:00,
2013-03-20 01:23:00,64.0,62.0,-100.00,WNW,291,6.0,-999.0,90,0.00,,,-99.99,0.000000,,2013-03-20 05:23:00,
2013-03-20 01:32:00,64.0,62.0,-100.00,WNW,286,6.0,-999.0,91,0.00,,,-99.99,0.000000,,2013-03-20 05:32:00,
2013-03-20 01:42:00,64.0,61.0,-100.00,WNW,292,5.0,-999.0,91,0.00,,,-99.99,0.000000,,2013-03-20 05:42:00,
2013-03-20 01:53:00,64.0,61.0,-100.00,WNW,292,5.0,-999.0,91,0.00,,,-99.99,0.000000,,2013-03-20 05:53:00,
2013-03-20 02:02:00,63.0,61.0,-100.00,WNW,298,5.0,-999.0,91,0.00,,,-99.99,0.000000,,2013-03-20 06:02:00,
2013-03-20 02:12:00,63.0,61.0,-100.00,West,281,6.0,-999.0,91,0.00,,,-99.99,0.000000,,2013-03-20 06:12:00,
2013-03-20 02:22:00,63.0,61.0,-100.00,West,281,6.0,-999.0,91,0.00,,,-99.99,0.000000,,2013-03-20 06:22:00,
2013-03-20 02:32:00,63.0,61.0,-100.00,WNW,282,5.0,-999.0,92,0.00,,,-99.99,0.000000,,2013-03-20 06:32:00,
2013-03-20 02:43:00,62.0,60.0,-100.00,WNW,286,4.0,-999.0,92,0.00,,,-99.99,0.000000,,2013-03-20 06:43:00,
2013-03-20 02:53:00,62.0,60.0,-100.00,WNW,286,4.0,-999.0,92,0.00,,,-99.99,0.000000,,2013-03-20 06:53:00,
2013-03-20 03:02:00,62.0,60.0,-100.00,WNW,290,4.0,-999.0,93,0.00,,,-99.99,0.000000,,2013-03-20 07:02:00,
2013-03-20 03:12:00,62.0,60.0,-100.00,WNW,300,6.0,-999.0,93,0.00,,,-99.99,0.000000,,2013-03-20 07:12:00,
2013-03-20 03:22:00,62.0,60.0,-100.00,WNW,300,6.0,-999.0,93,0.00,,,-99.99,0.000000,,2013-03-20 07:22:00,
2013-03-20 03:32:00,62.0,60.0,-100.00,NW,317,6.0,-999.0,94,0.00,,,-99.99,0.000000,,2013-03-20 07:32:00,
2013-03-20 03:42:00,62.0,60.0,-100.00,NW,323,6.0,-999.0,94,0.00,,,-99.99,0.000000,,2013-03-20 07:42:00,
2013-03-20 03:52:00,62.0,60.0,-100.00,NW,323,6.0,-999.0,94,0.00,,,-99.99,0.000000,,2013-03-20 07:52:00,
2013-03-20 04:02:00,61.0,60.0,-100.00,NW,319,5.0,-999.0,94,0.00,,,-99.99,0.000000,,2013-03-20 08:02:00,
2013-03-20 04:12:00,62.0,60.0,-100.00,NNW,334,5.0,-999.0,95,0.00,,,-99.99,0.000000,,2013-03-20 08:12:00,
2013-03-20 04:22:00,62.0,60.0,-100.00,NNW,334,5.0,-999.0,95,0.00,,,-99.99,0.000000,,2013-03-20 08:22:00,
2013-03-20 04:32:00,62.0,61.0,-100.00,North,351,5.0,-999.0,95,0.00,,,-99.99,0.000000,,2013-03-20 08:32:00,
2013-03-20 04:42:00,62.0,61.0,-100.00,NNE,13,5.0,-999.0,95,0.00,,,-99.99,0.000000,,2013-03-20 08:42:00,
2013-03-20 04:52:00,62.0,61.0,-100.00,NNE,13,5.0,-999.0,95,0.00,,,-99.99,0.000000,,2013-03-20 08:52:00,
2013-03-20 05:02:00,64.0,62.0,-100.00,NNE,31,6.0,-999.0,96,0.00,,,-99.99,0.000000,,2013-03-20 09:02:00,
2013-03-20 05:12:00,64.0,63.0,-100.00,NE,40,6.0,-999.0,96,0.00,,,-99.99,0.000000,,2013-03-20 09:12:00,
2013-03-20 05:22:00,64.0,63.0,-100.00,NE,40,6.0,-999.0,96,0.00,,,-99.99,0.000000,,2013-03-20 09:22:00,
2013-03-20 05:33:00,64.0,63.0,-100.00,NE,43,6.0,-999.0,96,0.00,,,-99.99,0.000000,,2013-03-20 09:33:00,
2013-03-20 05:43:00,64.0,63.0,-100.00,NE,45,5.0,-999.0,96,0.00,,,-99.99,0.000000,,2013-03-20 09:43:00,
2013-03-20 05:53:00,64.0,63.0,-100.00,NE,45,5.0,-999.0,96,0.00,,,-99.99,0.000000,,2013-03-20 09:53:00,
2013-03-20 06:03:00,64.0,63.0,-100.00,NE,56,6.0,-999.0,97,0.00,,,-99.99,0.000000,,2013-03-20 10:03:00,
2013-03-20 06:12:00,64.0,63.0,-100.00,ENE,65,6.0,-999.0,97,0.00,,,-99.99,0.000000,,2013-03-20 10:12:00,
2013-03-20 06:23:00,64.0,63.0,-100.00,ENE,65,6.0,-999.0,97,0.00,,,-99.99,0.000000,,2013-03-20 10:23:00,
2013-03-20 06:33:00,64.0,63.0,-100.00,ENE,63,7.0,-999.0,97,0.00,,,-99.99,0.000000,,2013-03-20 10:33:00,
2013-03-20 06:43:00,64.0,63.0,-100.00,ENE,58,5.0,-999.0,97,0.00,,,-99.99,0.000000,,2013-03-20 10:43:00,
2013-03-20 06:53:00,64.0,63.0,-100.00,ENE,58,5.0,-999.0,97,0.00,,,-99.99,0.000000,,2013-03-20 10:53:00,
2013-03-20 07:03:00,64.0,63.0,-100.00,ENE,66,5.0,-999.0,97,0.00,,,-99.99,0.000000,,2013-03-20 11:03:00,
2013-03-20 07:12:00,64.0,64.0,-100.00,ENE,59,6.0,-999.0,97,0.00,,,-99.99,0.000000,,2013-03-20 11:12:00,
2013-03-20 07:22:00,64.0,64.0,-100.00,ENE,59,6.0,-999.0,97,0.00,,,-99.99,0.000000,,2013-03-20 11:22:00,
2013-03-20 07:32:00,65.0,64.0,-100.00,ESE,112,6.0,-999.0,97,0.00,,,-99.99,0.000000,,2013-03-20 11:32:00,
2013-03-20 07:42:00,65.0,65.0,-100.00,SSE,154,4.0,-999.0,97,0.00,,,-99.99,0.300000,,2013-03-20 11:42:00,
2013-03-20 07:52:00,65.0,65.0,-100.00,SSE,154,4.0,-999.0,97,0.00,,,-99.99,0.300000,,2013-03-20 11:52:00,
2013-03-20 08:02:00,65.0,64.0,-100.00,South,186,4.0,-999.0,97,0.00,,,-99.99,2.100000,,2013-03-20 12:02:00,
2013-03-20 08:12:00,65.0,64.0,-100.00,SSW,205,4.0,-999.0,97,0.00,,,-99.99,4.500000,,2013-03-20 12:12:00,
2013-03-20 08:22:00,65.0,64.0,-100.00,SSW,205,4.0,-999.0,97,0.00,,,-99.99,4.500000,,2013-03-20 12:22:00,
2013-03-20 08:32:00,64.0,63.0,-100.00,South,191,6.0,-999.0,97,0.00,,,-99.99,11.200000,,2013-03-20 12:32:00,
2013-03-20 08:42:00,64.0,63.0,-100.00,ESE,117,3.0,-999.0,97,0.00,,,-99.99,16.900000,,2013-03-20 12:42:00,
2013-03-20 08:52:00,64.0,63.0,-100.00,ESE,117,3.0,-999.0,97,0.00,,,-99.99,16.900000,,2013-03-20 12:52:00,
2013-03-20 09:03:00,64.0,63.0,-100.00,ENE,66,5.0,-999.0,97,0.00,,,-99.99,30.200001,,2013-03-20 13:03:00,
2013-03-20 09:12:00,64.0,63.0,-100.00,SE,138,8.0,-999.0,97,0.00,,,-99.99,40.299999,,2013-03-20 13:12:00,
2013-03-20 09:22:00,64.0,63.0,-100.00,SE,138,8.0,-999.0,97,0.00,,,-99.99,40.299999,,2013-03-20 13:22:00,
2013-03-20 09:32:00,64.0,63.0,-100.00,ESE,121,5.0,-999.0,97,0.00,,,-99.99,64.400002,,2013-03-20 13:32:00,
2013-03-20 09:42:00,64.0,63.0,-100.00,East,96,5.0,-999.0,97,0.00,,,-99.99,119.400002,,2013-03-20 13:42:00,
2013-03-20 09:53:00,64.0,63.0,-100.00,East,96,5.0,-999.0,97,0.00,,,-99.99,119.400002,,2013-03-20 13:53:00,
2013-03-20 10:03:00,64.0,64.0,-100.00,East,82,4.0,-999.0,97,0.00,,,-99.99,158.500000,,2013-03-20 14:03:00,
2013-03-20 10:12:00,65.0,64.0,-100.00,ENE,68,3.0,-999.0,96,0.00,,,-99.99,160.300003,,2013-03-20 14:12:00,
2013-03-20 10:23:00,65.0,64.0,-100.00,ENE,68,3.0,-999.0,96,0.00,,,-99.99,160.300003,,2013-03-20 14:23:00,
2013-03-20 10:33:00,65.0,64.0,-100.00,South,172,2.0,-999.0,96,0.00,,,-99.99,177.500000,,2013-03-20 14:33:00,
2013-03-20 10:42:00,66.0,64.0,-100.00,SSW,192,4.0,-999.0,95,0.00,,,-99.99,160.100006,,2013-03-20 14:42:00,
2013-03-20 10:53:00,66.0,64.0,-100.00,SSW,192,4.0,-999.0,95,0.00,,,-99.99,160.100006,,2013-03-20 14:53:00,
2013-03-20 11:02:00,66.0,64.0,-100.00,South,181,3.0,-999.0,93,0.00,,,-99.99,179.199997,,2013-03-20 15:02:00,
2013-03-20 11:12:00,67.0,65.0,-100.00,South,172,2.0,-999.0,92,0.00,,,-99.99,221.000000,,2013-03-20 15:12:00,
2013-03-20 11:22:00,67.0,65.0,-100.00,South,172,2.0,-999.0,92,0.00,,,-99.99,221.000000,,2013-03-20 15:22:00,
2013-03-20 11:33:00,68.0,65.0,-100.00,South,189,6.0,-999.0,88,0.00,,,-99.99,260.799988,,2013-03-20 15:33:00,
2013-03-20 11:43:00,69.0,65.0,-100.00,South,184,3.0,-999.0,85,0.00,,,-99.99,233.600006,,2013-03-20 15:43:00,
2013-03-20 11:53:00,69.0,65.0,-100.00,South,184,3.0,-999.0,85,0.00,,,-99.99,233.600006,,2013-03-20 15:53:00,
2013-03-20 12:03:00,70.0,65.0,-100.00,South,183,2.0,-999.0,84,0.00,,,-99.99,217.000000,,2013-03-20 16:03:00,
2013-03-20 12:13:00,70.0,65.0,-100.00,SW,218,2.0,-999.0,83,0.00,,,-99.99,209.000000,,2013-03-20 16:13:00,
2013-03-20 12:23:00,70.0,65.0,-100.00,SW,218,2.0,-999.0,83,0.00,,,-99.99,209.000000,,2013-03-20 16:23:00,
2013-03-20 12:33:00,71.0,65.0,-100.00,WSW,237,2.0,-999.0,81,0.00,,,-99.99,197.300003,,2013-03-20 16:33:00,
2013-03-20 12:43:00,71.0,65.0,-100.00,SW,224,2.0,-999.0,80,0.00,,,-99.99,244.699997,,2013-03-20 16:43:00,
2013-03-20 12:53:00,71.0,65.0,-100.00,SW,224,2.0,-999.0,80,0.00,,,-99.99,244.699997,,2013-03-20 16:53:00,
2013-03-20 13:03:00,71.0,64.0,-100.00,SSW,197,3.0,-999.0,78,0.00,,,-99.99,304.700012,,2013-03-20 17:03:00,
2013-03-20 13:12:00,72.0,64.0,-100.00,SSW,192,5.0,-999.0,77,0.00,,,-99.99,337.299988,,2013-03-20 17:12:00,
2013-03-20 13:22:00,72.0,64.0,-100.00,SSW,192,5.0,-999.0,77,0.00,,,-99.99,337.299988,,2013-03-20 17:22:00,
2013-03-20 13:32:00,72.0,64.0,-100.00,SSW,206,4.0,-999.0,76,0.00,,,-99.99,392.700012,,2013-03-20 17:32:00,
2013-03-20 13:42:00,72.0,64.0,-100.00,SSW,206,4.0,-999.0,76,0.00,,,-99.99,392.700012,,2013-03-20 17:42:00,
2013-03-20 13:53:00,72.0,64.0,-100.00,SSW,206,4.0,-999.0,76,0.00,,,-99.99,392.700012,,2013-03-20 17:53:00,
2013-03-20 14:02:00,74.0,65.0,-100.00,WNW,287,5.0,-999.0,72,0.00,,,-99.99,322.899994,,2013-03-20 18:02:00,
2013-03-20 14:12:00,74.0,64.0,-100.00,West,281,6.0,-999.0,71,0.00,,,-99.99,308.000000,,2013-03-20 18:12:00,
2013-03-20 14:22:00,74.0,64.0,-100.00,West,281,6.0,-999.0,71,0.00,,,-99.99,308.000000,,2013-03-20 18:22:00,
2013-03-20 14:33:00,74.0,64.0,-100.00,West,281,6.0,-999.0,71,0.00,,,-99.99,308.000000,,2013-03-20 18:33:00,
2013-03-20 14:43:00,74.0,61.0,-100.00,West,272,10.0,-999.0,62,0.00,,,-99.99,301.399994,,2013-03-20 18:43:00,
2013-03-20 14:53:00,74.0,61.0,-100.00,West,272,10.0,-999.0,62,0.00,,,-99.99,301.399994,,2013-03-20 18:53:00,
2013-03-20 15:02:00,74.0,61.0,-100.00,West,268,9.0,-999.0,62,0.00,,,-99.99,289.799988,,2013-03-20 19:02:00,
2013-03-20 15:12:00,75.0,61.0,-100.00,West,263,7.0,-999.0,62,0.00,,,-99.99,304.299988,,2013-03-20 19:12:00,
2013-03-20 15:22:00,75.0,61.0,-100.00,West,263,7.0,-999.0,62,0.00,,,-99.99,304.299988,,2013-03-20 19:22:00,
2013-03-20 15:32:00,75.0,61.0,-100.00,WSW,258,9.0,-999.0,61,0.00,,,-99.99,328.799988,,2013-03-20 19:32:00,
2013-03-20 15:42:00,74.0,61.0,-100.00,West,277,8.0,-999.0,62,0.00,,,-99.99,230.800003,,2013-03-20 19:42:00,
2013-03-20 15:53:00,74.0,61.0,-100.00,West,277,8.0,-999.0,62,0.00,,,-99.99,230.800003,,2013-03-20 19:53:00,
2013-03-20 16:02:00,74.0,60.0,-100.00,WNW,290,13.0,-999.0,61,0.00,,,-99.99,215.100006,,2013-03-20 20:02:00,
2013-03-20 16:13:00,73.0,59.0,-100.00,West,280,10.0,-999.0,63,0.00,,,-99.99,123.400002,,2013-03-20 20:13:00,
2013-03-20 16:22:00,73.0,59.0,-100.00,West,280,10.0,-999.0,63,0.00,,,-99.99,123.400002,,2013-03-20 20:22:00,
2013-03-20 16:32:00,72.0,59.0,-100.00,West,275,9.0,-999.0,63,0.00,,,-99.99,107.300003,,2013-03-20 20:32:00,
2013-03-20 16:42:00,72.0,60.0,-100.00,West,276,9.0,-999.0,64,0.00,,,-99.99,182.100006,,2013-03-20 20:42:00,
2013-03-20 16:53:00,72.0,60.0,-100.00,West,276,9.0,-999.0,64,0.00,,,-99.99,182.100006,,2013-03-20 20:53:00,
2013-03-20 17:02:00,73.0,60.0,-100.00,West,276,8.0,-999.0,64,0.00,,,-99.99,251.600006,,2013-03-20 21:02:00,
2013-03-20 17:12:00,73.0,60.0,-100.00,WNW,283,8.0,-999.0,63,0.00,,,-99.99,151.800003,,2013-03-20 21:12:00,
2013-03-20 17:22:00,73.0,60.0,-100.00,WNW,283,8.0,-999.0,63,0.00,,,-99.99,151.800003,,2013-03-20 21:22:00,
2013-03-20 17:33:00,73.0,59.0,-100.00,WNW,289,6.0,-999.0,62,0.00,,,-99.99,119.800003,,2013-03-20 21:33:00,
2013-03-20 17:42:00,73.0,59.0,-100.00,WNW,290,7.0,-999.0,62,0.00,,,-99.99,139.899994,,2013-03-20 21:42:00,
2013-03-20 17:53:00,73.0,59.0,-100.00,WNW,290,7.0,-999.0,62,0.00,,,-99.99,139.899994,,2013-03-20 21:53:00,
2013-03-20 18:03:00,72.0,59.0,-100.00,WNW,291,6.0,-999.0,63,0.00,,,-99.99,93.599998,,2013-03-20 22:03:00,
2013-03-20 18:12:00,72.0,59.0,-100.00,West,279,7.0,-999.0,64,0.00,,,-99.99,67.500000,,2013-03-20 22:12:00,
2013-03-20 18:23:00,72.0,59.0,-100.00,West,279,7.0,-999.0,64,0.00,,,-99.99,67.500000,,2013-03-20 22:23:00,
2013-03-20 18:33:00,72.0,59.0,-100.00,West,271,6.0,-999.0,64,0.00,,,-99.99,75.699997,,2013-03-20 22:33:00,
2013-03-20 18:42:00,71.0,59.0,-100.00,WSW,254,5.0,-999.0,64,0.00,,,-99.99,44.599998,,2013-03-20 22:42:00,
2013-03-20 18:53:00,71.0,59.0,-100.00,WSW,254,5.0,-999.0,64,0.00,,,-99.99,44.599998,,2013-03-20 22:53:00,
2013-03-20 19:02:00,71.0,59.0,-100.00,West,262,5.0,-999.0,65,0.00,,,-99.99,26.400000,,2013-03-20 23:02:00,
2013-03-20 19:12:00,70.0,59.0,-100.00,West,265,6.0,-999.0,66,0.00,,,-99.99,17.700001,,2013-03-20 23:12:00,
2013-03-20 19:22:00,70.0,59.0,-100.00,West,265,6.0,-999.0,66,0.00,,,-99.99,17.700001,,2013-03-20 23:22:00,
2013-03-20 19:32:00,70.0,58.0,-100.00,West,273,12.0,-999.0,65,0.00,,,-99.99,9.000000,,2013-03-20 23:32:00,
2013-03-20 19:42:00,70.0,57.0,-100.00,West,271,15.0,-999.0,63,0.00,,,-99.99,2.700000,,2013-03-20 23:42:00,
2013-03-20 19:53:00,70.0,57.0,-100.00,West,271,15.0,-999.0,63,0.00,,,-99.99,2.700000,,2013-03-20 23:53:00,
2013-03-20 20:02:00,68.0,59.0,-100.00,West,272,14.0,-999.0,70,0.00,,,-99.99,0.300000,,2013-03-21 00:02:00,
2013-03-20 20:13:00,67.0,60.0,-100.00,West,269,13.0,-999.0,77,0.00,,,-99.99,0.000000,,2013-03-21 00:13:00,
2013-03-20 20:23:00,67.0,60.0,-100.00,West,269,13.0,-999.0,77,0.00,,,-99.99,0.000000,,2013-03-21 00:23:00,
2013-03-20 20:33:00,66.0,60.0,-100.00,West,269,11.0,-999.0,81,0.00,,,-99.99,0.000000,,2013-03-21 00:33:00,
2013-03-20 20:42:00,65.0,61.0,-100.00,West,273,10.0,-999.0,86,0.00,,,-99.99,0.000000,,2013-03-21 00:42:00,
2013-03-20 20:52:00,65.0,61.0,-100.00,West,273,10.0,-999.0,86,0.00,,,-99.99,0.000000,,2013-03-21 00:52:00,
2013-03-20 21:02:00,64.0,61.0,-100.00,West,273,8.0,-999.0,88,0.00,,,-99.99,0.000000,,2013-03-21 01:02:00,
2013-03-20 21:12:00,64.0,61.0,-100.00,West,278,8.0,-999.0,90,0.00,,,-99.99,0.000000,,2013-03-21 01:12:00,
2013-03-20 21:22:00,64.0,61.0,-100.00,West,278,8.0,-999.0,90,0.00,,,-99.99,0.000000,,2013-03-21 01:22:00,
2013-03-20 21:32:00,64.0,61.0,-100.00,West,274,8.0,-999.0,92,0.00,,,-99.99,0.000000,,2013-03-21 01:32:00,
2013-03-20 21:42:00,64.0,61.0,-100.00,West,274,8.0,-999.0,92,0.00,,,-99.99,0.000000,,2013-03-21 01:42:00,
2013-03-20 21:53:00,63.0,61.0,-100.00,West,281,7.0,-999.0,92,0.00,,,-99.99,0.000000,,2013-03-21 01:53:00,
2013-03-20 22:02:00,63.0,61.0,-100.00,WNW,283,7.0,-999.0,93,0.00,,,-99.99,0.000000,,2013-03-21 02:02:00,
2013-03-20 22:13:00,63.0,61.0,-100.00,WNW,282,6.0,-999.0,93,0.00,,,-99.99,0.000000,,2013-03-21 02:13:00,
2013-03-20 22:23:00,63.0,61.0,-100.00,WNW,282,6.0,-999.0,93,0.00,,,-99.99,0.000000,,2013-03-21 02:23:00,
2013-03-20 22:33:00,63.0,61.0,-100.00,WNW,295,6.0,-999.0,93,0.00,,,-99.99,0.000000,,2013-03-21 02:33:00,
2013-03-20 22:42:00,63.0,61.0,-100.00,WNW,295,6.0,-999.0,93,0.00,,,-99.99,0.000000,,2013-03-21 02:42:00,
2013-03-20 22:52:00,63.0,61.0,-100.00,WNW,295,6.0,-999.0,93,0.00,,,-99.99,0.000000,,2013-03-21 02:52:00,
2013-03-20 23:02:00,62.0,61.0,-100.00,WNW,297,6.0,-999.0,94,0.00,,,-99.99,0.000000,,2013-03-21 03:02:00,
2013-03-20 23:12:00,62.0,60.0,-100.00,WNW,287,5.0,-999.0,94,0.00,,,-99.99,0.000000,,2013-03-21 03:12:00,
2013-03-20 23:22:00,62.0,60.0,-100.00,WNW,287,5.0,-999.0,94,0.00,,,-99.99,0.000000,,2013-03-21 03:22:00,
2013-03-20 23:33:00,62.0,60.0,-100.00,WNW,285,4.0,-999.0,94,0.00,,,-99.99,0.000000,,2013-03-21 03:33:00,
2013-03-20 23:43:00,62.0,60.0,-100.00,WNW,285,4.0,-999.0,94,0.00,,,-99.99,0.000000,,2013-03-21 03:43:00,
2013-03-20 23:53:00,61.0,60.0,-100.00,WNW,287,4.0,-999.0,95,0.00,,,-99.99,0.000000,,2013-03-21 03:53:00,